sensor_id;sensor_type;location;lat;lon;timestamp;temperature;humidity
27781;DHT22;15167;1.318;103.762;2022-09-09T00:04:38;27.70;99.90
27781;DHT22;15167;1.318;103.762;2022-09-09T00:09:39;27.70;99.90
27781;DHT22;15167;1.318;103.762;2022-09-09T00:17:18;27.70;99.90
27781;DHT22;15167;1.318;103.762;2022-09-09T00:22:24;27.80;99.90
27781;DHT22;15167;1.318;103.762;2022-09-09T00:24:54;27.80;99.90
27781;DHT22;15167;1.318;103.762;2022-09-09T00:27:27;27.80;99.90
27781;DHT22;15167;1.318;103.762;2022-09-09T00:30:13;27.80;99.90
27781;DHT22;15167;1.318;103.762;2022-09-09T00:32:40;27.80;99.90
27781;DHT22;15167;1.318;103.762;2022-09-09T00:35:25;27.90;99.90
27781;DHT22;15167;1.318;103.762;2022-09-09T00:37:54;27.90;99.90
27781;DHT22;15167;1.318;103.762;2022-09-09T00:40:30;28.00;99.90
27781;DHT22;15167;1.318;103.762;2022-09-09T00:47:58;28.20;99.90
27781;DHT22;15167;1.318;103.762;2022-09-09T00:57:55;28.70;99.90
27781;DHT22;15167;1.318;103.762;2022-09-09T01:11:02;29.40;99.90
27781;DHT22;15167;1.318;103.762;2022-09-09T01:13:30;29.40;99.90
27781;DHT22;15167;1.318;103.762;2022-09-09T01:15:59;29.40;99.90
27781;DHT22;15167;1.318;103.762;2022-09-09T01:18:49;29.10;99.90
27781;DHT22;15167;1.318;103.762;2022-09-09T01:26:21;28.30;99.90
27781;DHT22;15167;1.318;103.762;2022-09-09T01:28:49;28.10;99.90
27781;DHT22;15167;1.318;103.762;2022-09-09T01:31:37;28.10;99.90
27781;DHT22;15167;1.318;103.762;2022-09-09T01:34:09;27.90;99.90
27781;DHT22;15167;1.318;103.762;2022-09-09T01:36:38;27.80;99.90
27781;DHT22;15167;1.318;103.762;2022-09-09T01:39:05;27.60;99.90
27781;DHT22;15167;1.318;103.762;2022-09-09T01:41:31;27.50;99.90
27781;DHT22;15167;1.318;103.762;2022-09-09T01:43:57;27.60;99.90
27781;DHT22;15167;1.318;103.762;2022-09-09T01:46:24;27.70;98.40
27781;DHT22;15167;1.318;103.762;2022-09-09T01:48:51;27.90;91.70
27781;DHT22;15167;1.318;103.762;2022-09-09T01:51:18;28.00;84.70
27781;DHT22;15167;1.318;103.762;2022-09-09T01:53:44;28.10;77.70
27781;DHT22;15167;1.318;103.762;2022-09-09T02:01:18;28.30;49.20
27781;DHT22;15167;1.318;103.762;2022-09-09T02:03:47;28.40;45.30
27781;DHT22;15167;1.318;103.762;2022-09-09T02:08:45;28.50;44.20
27781;DHT22;15167;1.318;103.762;2022-09-09T02:11:18;28.50;49.90
27781;DHT22;15167;1.318;103.762;2022-09-09T02:13:48;28.50;40.80
27781;DHT22;15167;1.318;103.762;2022-09-09T02:21:15;28.50;1.00
27781;DHT22;15167;1.318;103.762;2022-09-09T02:23:42;28.50;1.00
27781;DHT22;15167;1.318;103.762;2022-09-09T02:26:09;28.50;1.00
27781;DHT22;15167;1.318;103.762;2022-09-09T02:28:36;28.50;1.00
27781;DHT22;15167;1.318;103.762;2022-09-09T02:31:03;28.50;1.00
27781;DHT22;15167;1.318;103.762;2022-09-09T02:33:32;28.50;1.00
27781;DHT22;15167;1.318;103.762;2022-09-09T02:36:00;28.50;1.00
27781;DHT22;15167;1.318;103.762;2022-09-09T02:38:29;28.50;1.00
27781;DHT22;15167;1.318;103.762;2022-09-09T02:40:58;28.60;1.00
27781;DHT22;15167;1.318;103.762;2022-09-09T02:43:24;28.60;1.00
27781;DHT22;15167;1.318;103.762;2022-09-09T02:53:24;28.60;99.90
27781;DHT22;15167;1.318;103.762;2022-09-09T02:55:58;28.70;99.90
27781;DHT22;15167;1.318;103.762;2022-09-09T02:58:25;28.70;99.90
27781;DHT22;15167;1.318;103.762;2022-09-09T03:00:52;28.60;99.90
27781;DHT22;15167;1.318;103.762;2022-09-09T03:03:19;28.60;1.00
27781;DHT22;15167;1.318;103.762;2022-09-09T03:05:45;28.50;1.00
27781;DHT22;15167;1.318;103.762;2022-09-09T03:08:11;28.40;1.00
27781;DHT22;15167;1.318;103.762;2022-09-09T03:10:38;28.30;1.00
27781;DHT22;15167;1.318;103.762;2022-09-09T03:13:05;28.30;1.00
27781;DHT22;15167;1.318;103.762;2022-09-09T03:15:34;28.30;1.00
27781;DHT22;15167;1.318;103.762;2022-09-09T03:18:00;28.40;1.00
27781;DHT22;15167;1.318;103.762;2022-09-09T03:20:27;28.40;1.00
27781;DHT22;15167;1.318;103.762;2022-09-09T03:22:53;28.50;1.00
27781;DHT22;15167;1.318;103.762;2022-09-09T03:25:20;28.50;1.00
27781;DHT22;15167;1.318;103.762;2022-09-09T03:27:46;28.50;1.00
27781;DHT22;15167;1.318;103.762;2022-09-09T03:30:12;28.50;1.00
27781;DHT22;15167;1.318;103.762;2022-09-09T03:32:39;28.50;1.00
27781;DHT22;15167;1.318;103.762;2022-09-09T03:35:05;28.50;1.00
27781;DHT22;15167;1.318;103.762;2022-09-09T03:37:32;28.50;1.00
27781;DHT22;15167;1.318;103.762;2022-09-09T03:39:58;28.50;1.00
27781;DHT22;15167;1.318;103.762;2022-09-09T03:42:25;28.50;1.00
27781;DHT22;15167;1.318;103.762;2022-09-09T03:44:51;28.50;1.00
27781;DHT22;15167;1.318;103.762;2022-09-09T03:47:18;28.60;1.00
27781;DHT22;15167;1.318;103.762;2022-09-09T03:49:44;28.60;1.00
27781;DHT22;15167;1.318;103.762;2022-09-09T03:52:11;28.60;1.00
27781;DHT22;15167;1.318;103.762;2022-09-09T03:54:37;28.70;1.00
27781;DHT22;15167;1.318;103.762;2022-09-09T03:57:03;28.70;1.00
27781;DHT22;15167;1.318;103.762;2022-09-09T03:59:30;28.70;1.00
27781;DHT22;15167;1.318;103.762;2022-09-09T04:01:56;28.70;1.00
27781;DHT22;15167;1.318;103.762;2022-09-09T04:04:24;28.60;1.00
27781;DHT22;15167;1.318;103.762;2022-09-09T04:06:52;28.70;1.00
27781;DHT22;15167;1.318;103.762;2022-09-09T04:09:18;28.70;1.00
27781;DHT22;15167;1.318;103.762;2022-09-09T04:11:44;28.70;1.00
27781;DHT22;15167;1.318;103.762;2022-09-09T04:14:11;28.70;99.90
27781;DHT22;15167;1.318;103.762;2022-09-09T04:16:38;28.60;99.90
27781;DHT22;15167;1.318;103.762;2022-09-09T04:19:04;28.60;1.00
27781;DHT22;15167;1.318;103.762;2022-09-09T04:21:32;28.60;1.00
27781;DHT22;15167;1.318;103.762;2022-09-09T04:23:58;28.60;1.00
27781;DHT22;15167;1.318;103.762;2022-09-09T04:26:24;28.60;99.90
27781;DHT22;15167;1.318;103.762;2022-09-09T04:28:50;28.60;99.90
27781;DHT22;15167;1.318;103.762;2022-09-09T04:31:17;28.50;99.90
27781;DHT22;15167;1.318;103.762;2022-09-09T04:33:45;28.50;1.00
27781;DHT22;15167;1.318;103.762;2022-09-09T04:36:12;28.40;1.00
27781;DHT22;15167;1.318;103.762;2022-09-09T04:38:38;28.40;1.00
27781;DHT22;15167;1.318;103.762;2022-09-09T04:41:05;28.40;1.00
27781;DHT22;15167;1.318;103.762;2022-09-09T04:43:31;28.40;14.70
27781;DHT22;15167;1.318;103.762;2022-09-09T04:45:58;28.40;28.50
27781;DHT22;15167;1.318;103.762;2022-09-09T04:48:26;28.30;23.80
27781;DHT22;15167;1.318;103.762;2022-09-09T04:50:56;28.20;60.40
27781;DHT22;15167;1.318;103.762;2022-09-09T04:53:23;28.10;57.00
27781;DHT22;15167;1.318;103.762;2022-09-09T04:55:51;28.10;57.50
27781;DHT22;15167;1.318;103.762;2022-09-09T04:58:17;28.10;50.60
27781;DHT22;15167;1.318;103.762;2022-09-09T05:00:43;28.10;66.80
27781;DHT22;15167;1.318;103.762;2022-09-09T05:03:10;28.20;56.00
27781;DHT22;15167;1.318;103.762;2022-09-09T05:05:36;28.20;96.00
27781;DHT22;15167;1.318;103.762;2022-09-09T05:08:06;28.30;99.90
27781;DHT22;15167;1.318;103.762;2022-09-09T05:10:32;28.30;99.90
27781;DHT22;15167;1.318;103.762;2022-09-09T05:12:59;28.30;99.90
27781;DHT22;15167;1.318;103.762;2022-09-09T05:15:25;28.50;99.90
27781;DHT22;15167;1.318;103.762;2022-09-09T05:17:51;28.50;99.90
27781;DHT22;15167;1.318;103.762;2022-09-09T05:20:20;28.40;99.90
27781;DHT22;15167;1.318;103.762;2022-09-09T05:22:46;28.40;99.90
27781;DHT22;15167;1.318;103.762;2022-09-09T05:25:13;28.40;99.90
27781;DHT22;15167;1.318;103.762;2022-09-09T05:27:39;28.50;99.90
27781;DHT22;15167;1.318;103.762;2022-09-09T05:30:05;28.50;76.10
27781;DHT22;15167;1.318;103.762;2022-09-09T05:32:31;28.70;57.90
27781;DHT22;15167;1.318;103.762;2022-09-09T05:34:58;28.80;39.20
27781;DHT22;15167;1.318;103.762;2022-09-09T05:37:25;28.90;21.80
27781;DHT22;15167;1.318;103.762;2022-09-09T05:39:51;28.90;15.40
27781;DHT22;15167;1.318;103.762;2022-09-09T05:42:18;28.90;15.60
27781;DHT22;15167;1.318;103.762;2022-09-09T05:44:44;29.00;7.10
27781;DHT22;15167;1.318;103.762;2022-09-09T05:47:11;28.90;7.00
27781;DHT22;15167;1.318;103.762;2022-09-09T05:49:37;29.00;5.50
27781;DHT22;15167;1.318;103.762;2022-09-09T05:52:03;29.10;2.80
27781;DHT22;15167;1.318;103.762;2022-09-09T05:54:29;29.10;2.30
27781;DHT22;15167;1.318;103.762;2022-09-09T05:56:56;29.20;1.00
27781;DHT22;15167;1.318;103.762;2022-09-09T05:59:22;29.30;12.80
27781;DHT22;15167;1.318;103.762;2022-09-09T06:01:49;29.40;9.50
27781;DHT22;15167;1.318;103.762;2022-09-09T06:04:15;29.60;1.00
27781;DHT22;15167;1.318;103.762;2022-09-09T06:06:41;29.60;1.00
27781;DHT22;15167;1.318;103.762;2022-09-09T06:09:09;29.70;1.00
27781;DHT22;15167;1.318;103.762;2022-09-09T06:11:39;29.80;1.00
27781;DHT22;15167;1.318;103.762;2022-09-09T06:14:05;29.90;1.00
27781;DHT22;15167;1.318;103.762;2022-09-09T06:16:32;29.90;1.00
27781;DHT22;15167;1.318;103.762;2022-09-09T06:18:59;29.90;1.00
27781;DHT22;15167;1.318;103.762;2022-09-09T06:21:29;29.90;1.00
27781;DHT22;15167;1.318;103.762;2022-09-09T06:23:56;29.70;1.00
27781;DHT22;15167;1.318;103.762;2022-09-09T06:26:31;29.80;1.00
27781;DHT22;15167;1.318;103.762;2022-09-09T06:28:58;29.80;1.00
27781;DHT22;15167;1.318;103.762;2022-09-09T06:31:25;29.80;1.00
27781;DHT22;15167;1.318;103.762;2022-09-09T06:33:52;29.80;1.00
27781;DHT22;15167;1.318;103.762;2022-09-09T06:36:23;29.70;1.00
27781;DHT22;15167;1.318;103.762;2022-09-09T06:38:50;29.70;1.00
27781;DHT22;15167;1.318;103.762;2022-09-09T06:41:16;29.50;1.00
27781;DHT22;15167;1.318;103.762;2022-09-09T06:43:44;29.30;1.00
27781;DHT22;15167;1.318;103.762;2022-09-09T06:46:11;29.10;1.00
27781;DHT22;15167;1.318;103.762;2022-09-09T06:48:41;28.90;1.00
27781;DHT22;15167;1.318;103.762;2022-09-09T06:51:10;28.70;1.00
27781;DHT22;15167;1.318;103.762;2022-09-09T06:53:39;28.60;1.00
27781;DHT22;15167;1.318;103.762;2022-09-09T06:56:25;28.50;1.00
27781;DHT22;15167;1.318;103.762;2022-09-09T06:58:53;28.40;1.00
27781;DHT22;15167;1.318;103.762;2022-09-09T07:01:24;28.30;1.00
27781;DHT22;15167;1.318;103.762;2022-09-09T07:03:51;28.30;1.00
27781;DHT22;15167;1.318;103.762;2022-09-09T07:06:19;28.30;1.00
27781;DHT22;15167;1.318;103.762;2022-09-09T07:08:51;28.30;1.00
27781;DHT22;15167;1.318;103.762;2022-09-09T07:11:22;28.40;1.00
27781;DHT22;15167;1.318;103.762;2022-09-09T07:13:48;28.40;1.00
27781;DHT22;15167;1.318;103.762;2022-09-09T07:16:18;28.40;1.00
27781;DHT22;15167;1.318;103.762;2022-09-09T07:18:44;28.30;1.00
27781;DHT22;15167;1.318;103.762;2022-09-09T07:21:11;28.40;1.00
27781;DHT22;15167;1.318;103.762;2022-09-09T07:23:38;28.40;1.00
27781;DHT22;15167;1.318;103.762;2022-09-09T07:26:11;28.40;1.00
27781;DHT22;15167;1.318;103.762;2022-09-09T07:28:37;28.50;1.00
27781;DHT22;15167;1.318;103.762;2022-09-09T07:31:04;28.60;1.00
27781;DHT22;15167;1.318;103.762;2022-09-09T07:33:31;28.50;1.00
27781;DHT22;15167;1.318;103.762;2022-09-09T07:36:03;28.60;1.00
27781;DHT22;15167;1.318;103.762;2022-09-09T07:38:29;28.60;1.00
27781;DHT22;15167;1.318;103.762;2022-09-09T07:41:02;28.50;1.00
27781;DHT22;15167;1.318;103.762;2022-09-09T07:43:29;28.50;1.00
27781;DHT22;15167;1.318;103.762;2022-09-09T07:45:58;28.60;1.00
27781;DHT22;15167;1.318;103.762;2022-09-09T07:48:24;28.50;1.00
27781;DHT22;15167;1.318;103.762;2022-09-09T07:50:50;28.60;1.00
27781;DHT22;15167;1.318;103.762;2022-09-09T07:53:16;28.50;1.00
27781;DHT22;15167;1.318;103.762;2022-09-09T07:55:43;28.40;1.00
27781;DHT22;15167;1.318;103.762;2022-09-09T07:58:09;28.30;1.00
27781;DHT22;15167;1.318;103.762;2022-09-09T08:00:35;28.30;1.00
27781;DHT22;15167;1.318;103.762;2022-09-09T08:03:01;28.20;1.00
27781;DHT22;15167;1.318;103.762;2022-09-09T08:05:29;28.20;1.00
27781;DHT22;15167;1.318;103.762;2022-09-09T08:07:55;28.10;1.00
27781;DHT22;15167;1.318;103.762;2022-09-09T08:10:21;28.20;1.00
27781;DHT22;15167;1.318;103.762;2022-09-09T08:12:47;28.20;1.00
27781;DHT22;15167;1.318;103.762;2022-09-09T08:15:14;28.20;1.00
27781;DHT22;15167;1.318;103.762;2022-09-09T08:17:40;28.30;1.00
27781;DHT22;15167;1.318;103.762;2022-09-09T08:20:06;28.30;1.40
27781;DHT22;15167;1.318;103.762;2022-09-09T08:22:33;28.30;11.40
27781;DHT22;15167;1.318;103.762;2022-09-09T08:24:59;28.10;28.80
27781;DHT22;15167;1.318;103.762;2022-09-09T08:27:25;28.10;42.00
27781;DHT22;15167;1.318;103.762;2022-09-09T08:29:52;28.00;57.70
27781;DHT22;15167;1.318;103.762;2022-09-09T08:32:18;28.00;72.90
27781;DHT22;15167;1.318;103.762;2022-09-09T08:34:45;28.10;80.30
27781;DHT22;15167;1.318;103.762;2022-09-09T08:37:11;28.10;87.90
27781;DHT22;15167;1.318;103.762;2022-09-09T08:39:37;28.10;90.30
27781;DHT22;15167;1.318;103.762;2022-09-09T08:42:09;28.10;99.90
27781;DHT22;15167;1.318;103.762;2022-09-09T08:44:57;28.00;99.90
27781;DHT22;15167;1.318;103.762;2022-09-09T08:50:19;28.00;99.90
27781;DHT22;15167;1.318;103.762;2022-09-09T08:58:02;27.90;99.90
27781;DHT22;15167;1.318;103.762;2022-09-09T09:00:36;28.00;99.90
27781;DHT22;15167;1.318;103.762;2022-09-09T09:03:09;28.00;99.90
27781;DHT22;15167;1.318;103.762;2022-09-09T09:05:44;28.00;99.90
27781;DHT22;15167;1.318;103.762;2022-09-09T09:10:57;27.80;99.90
27781;DHT22;15167;1.318;103.762;2022-09-09T09:16:03;27.90;99.90
27781;DHT22;15167;1.318;103.762;2022-09-09T09:18:32;27.80;99.90
27781;DHT22;15167;1.318;103.762;2022-09-09T09:21:04;27.80;99.90
27781;DHT22;15167;1.318;103.762;2022-09-09T09:23:39;27.90;99.90
27781;DHT22;15167;1.318;103.762;2022-09-09T09:26:09;27.80;99.90
27781;DHT22;15167;1.318;103.762;2022-09-09T09:28:36;27.70;99.90
27781;DHT22;15167;1.318;103.762;2022-09-09T09:31:10;27.60;99.90
27781;DHT22;15167;1.318;103.762;2022-09-09T09:36:12;27.60;99.90
27781;DHT22;15167;1.318;103.762;2022-09-09T09:38:57;27.60;99.90
27781;DHT22;15167;1.318;103.762;2022-09-09T09:41:33;27.60;99.90
27781;DHT22;15167;1.318;103.762;2022-09-09T09:44:01;27.70;99.90
27781;DHT22;15167;1.318;103.762;2022-09-09T09:46:27;27.70;99.90
27781;DHT22;15167;1.318;103.762;2022-09-09T09:49:11;27.70;99.90
27781;DHT22;15167;1.318;103.762;2022-09-09T09:51:39;27.70;99.90
27781;DHT22;15167;1.318;103.762;2022-09-09T09:54:22;27.70;99.90
27781;DHT22;15167;1.318;103.762;2022-09-09T09:56:50;27.70;99.90
27781;DHT22;15167;1.318;103.762;2022-09-09T10:01:54;27.70;99.90
27781;DHT22;15167;1.318;103.762;2022-09-09T10:04:32;27.70;99.90
27781;DHT22;15167;1.318;103.762;2022-09-09T10:06:59;27.70;99.90
27781;DHT22;15167;1.318;103.762;2022-09-09T10:09:36;27.80;99.90
27781;DHT22;15167;1.318;103.762;2022-09-09T10:14:41;27.70;99.90
27781;DHT22;15167;1.318;103.762;2022-09-09T10:19:38;27.60;99.90
27781;DHT22;15167;1.318;103.762;2022-09-09T10:27:19;27.70;99.90
27781;DHT22;15167;1.318;103.762;2022-09-09T10:39:59;27.50;99.90
27781;DHT22;15167;1.318;103.762;2022-09-09T10:42:30;27.50;99.90
27781;DHT22;15167;1.318;103.762;2022-09-09T10:45:00;27.50;99.90
27781;DHT22;15167;1.318;103.762;2022-09-09T10:47:49;27.50;99.90
27781;DHT22;15167;1.318;103.762;2022-09-09T10:50:24;27.50;99.90
27781;DHT22;15167;1.318;103.762;2022-09-09T10:55:22;27.50;99.90
27781;DHT22;15167;1.318;103.762;2022-09-09T10:57:52;27.40;99.90
27781;DHT22;15167;1.318;103.762;2022-09-09T11:00:21;27.40;99.90
27781;DHT22;15167;1.318;103.762;2022-09-09T11:02:49;27.40;99.90
27781;DHT22;15167;1.318;103.762;2022-09-09T11:05:18;27.40;99.90
27781;DHT22;15167;1.318;103.762;2022-09-09T11:10:23;27.40;99.90
27781;DHT22;15167;1.318;103.762;2022-09-09T11:12:51;27.30;99.90
27781;DHT22;15167;1.318;103.762;2022-09-09T11:15:23;27.30;99.90
27781;DHT22;15167;1.318;103.762;2022-09-09T11:17:55;27.20;99.90
27781;DHT22;15167;1.318;103.762;2022-09-09T11:20:22;27.20;99.90
27781;DHT22;15167;1.318;103.762;2022-09-09T11:23:02;27.20;99.90
27781;DHT22;15167;1.318;103.762;2022-09-09T11:25:34;27.20;99.90
27781;DHT22;15167;1.318;103.762;2022-09-09T11:41:32;27.20;99.90
27781;DHT22;15167;1.318;103.762;2022-09-09T11:43:59;27.20;99.90
27781;DHT22;15167;1.318;103.762;2022-09-09T11:46:33;27.20;95.80
27781;DHT22;15167;1.318;103.762;2022-09-09T11:49:01;27.20;96.20
27781;DHT22;15167;1.318;103.762;2022-09-09T11:51:29;27.20;88.40
27781;DHT22;15167;1.318;103.762;2022-09-09T11:53:59;27.20;83.30
27781;DHT22;15167;1.318;103.762;2022-09-09T11:56:29;27.20;75.20
27781;DHT22;15167;1.318;103.762;2022-09-09T11:58:57;27.20;62.80
27781;DHT22;15167;1.318;103.762;2022-09-09T12:01:34;27.10;67.50
27781;DHT22;15167;1.318;103.762;2022-09-09T12:04:11;27.30;69.80
27781;DHT22;15167;1.318;103.762;2022-09-09T12:06:58;27.30;73.30
27781;DHT22;15167;1.318;103.762;2022-09-09T12:09:27;27.20;58.10
27781;DHT22;15167;1.318;103.762;2022-09-09T12:14:38;27.20;82.10
27781;DHT22;15167;1.318;103.762;2022-09-09T12:17:23;27.20;94.70
27781;DHT22;15167;1.318;103.762;2022-09-09T12:20:11;27.20;99.90
27781;DHT22;15167;1.318;103.762;2022-09-09T12:27:34;27.20;99.90
27781;DHT22;15167;1.318;103.762;2022-09-09T12:32:28;27.10;99.90
27781;DHT22;15167;1.318;103.762;2022-09-09T12:39:58;27.10;99.90
27781;DHT22;15167;1.318;103.762;2022-09-09T12:42:25;27.10;99.90
27781;DHT22;15167;1.318;103.762;2022-09-09T12:47:18;27.10;99.90
27781;DHT22;15167;1.318;103.762;2022-09-09T12:49:46;27.10;99.90
27781;DHT22;15167;1.318;103.762;2022-09-09T12:52:48;27.10;99.90
27781;DHT22;15167;1.318;103.762;2022-09-09T12:55:07;27.10;99.90
27781;DHT22;15167;1.318;103.762;2022-09-09T12:57:38;27.10;99.90
27781;DHT22;15167;1.318;103.762;2022-09-09T13:00:06;27.10;99.90
27781;DHT22;15167;1.318;103.762;2022-09-09T13:02:34;27.10;99.90
27781;DHT22;15167;1.318;103.762;2022-09-09T13:05:12;27.10;99.90
27781;DHT22;15167;1.318;103.762;2022-09-09T13:07:39;27.10;99.90
27781;DHT22;15167;1.318;103.762;2022-09-09T13:10:05;27.10;99.90
27781;DHT22;15167;1.318;103.762;2022-09-09T13:12:32;27.10;99.90
27781;DHT22;15167;1.318;103.762;2022-09-09T13:14:58;27.10;99.90
27781;DHT22;15167;1.318;103.762;2022-09-09T13:17:25;27.10;99.90
27781;DHT22;15167;1.318;103.762;2022-09-09T13:19:52;27.10;99.90
27781;DHT22;15167;1.318;103.762;2022-09-09T13:24:45;27.00;99.90
27781;DHT22;15167;1.318;103.762;2022-09-09T13:30:19;27.00;99.90
27781;DHT22;15167;1.318;103.762;2022-09-09T13:32:59;27.00;99.90
27781;DHT22;15167;1.318;103.762;2022-09-09T13:35:26;27.00;99.90
27781;DHT22;15167;1.318;103.762;2022-09-09T13:37:52;27.00;99.90
27781;DHT22;15167;1.318;103.762;2022-09-09T13:40:20;27.00;99.90
27781;DHT22;15167;1.318;103.762;2022-09-09T13:42:47;27.00;99.90
27781;DHT22;15167;1.318;103.762;2022-09-09T13:45:18;27.00;99.90
27781;DHT22;15167;1.318;103.762;2022-09-09T13:47:47;27.00;99.90
27781;DHT22;15167;1.318;103.762;2022-09-09T13:50:25;27.00;99.90
27781;DHT22;15167;1.318;103.762;2022-09-09T13:52:52;27.00;99.90
27781;DHT22;15167;1.318;103.762;2022-09-09T13:55:19;26.90;99.90
27781;DHT22;15167;1.318;103.762;2022-09-09T13:57:50;26.90;99.90
27781;DHT22;15167;1.318;103.762;2022-09-09T14:00:17;26.90;99.90
27781;DHT22;15167;1.318;103.762;2022-09-09T14:02:43;26.80;99.90
27781;DHT22;15167;1.318;103.762;2022-09-09T14:05:10;26.80;99.90
27781;DHT22;15167;1.318;103.762;2022-09-09T14:07:39;26.80;99.90
27781;DHT22;15167;1.318;103.762;2022-09-09T14:10:06;26.80;99.90
27781;DHT22;15167;1.318;103.762;2022-09-09T14:12:32;26.80;99.90
27781;DHT22;15167;1.318;103.762;2022-09-09T14:14:58;26.80;99.90
27781;DHT22;15167;1.318;103.762;2022-09-09T14:17:28;26.90;99.90
27781;DHT22;15167;1.318;103.762;2022-09-09T14:19:55;26.90;99.90
27781;DHT22;15167;1.318;103.762;2022-09-09T14:22:22;26.80;99.90
27781;DHT22;15167;1.318;103.762;2022-09-09T14:24:48;26.80;99.90
27781;DHT22;15167;1.318;103.762;2022-09-09T14:27:14;26.90;99.90
27781;DHT22;15167;1.318;103.762;2022-09-09T14:29:41;26.80;99.90
27781;DHT22;15167;1.318;103.762;2022-09-09T14:32:09;26.90;99.90
27781;DHT22;15167;1.318;103.762;2022-09-09T14:34:35;26.80;99.90
27781;DHT22;15167;1.318;103.762;2022-09-09T14:37:01;26.80;99.90
27781;DHT22;15167;1.318;103.762;2022-09-09T14:39:27;26.90;99.90
27781;DHT22;15167;1.318;103.762;2022-09-09T14:41:53;26.80;99.90
27781;DHT22;15167;1.318;103.762;2022-09-09T14:44:19;26.80;99.90
27781;DHT22;15167;1.318;103.762;2022-09-09T14:46:45;26.80;99.90
27781;DHT22;15167;1.318;103.762;2022-09-09T14:49:12;26.80;99.90
27781;DHT22;15167;1.318;103.762;2022-09-09T14:51:38;26.80;99.90
27781;DHT22;15167;1.318;103.762;2022-09-09T14:54:04;26.80;99.90
27781;DHT22;15167;1.318;103.762;2022-09-09T14:56:31;26.80;99.90
27781;DHT22;15167;1.318;103.762;2022-09-09T14:59:00;26.80;99.90
27781;DHT22;15167;1.318;103.762;2022-09-09T15:01:27;26.80;99.90
27781;DHT22;15167;1.318;103.762;2022-09-09T15:04:00;26.80;99.90
27781;DHT22;15167;1.318;103.762;2022-09-09T15:06:27;26.70;99.90
27781;DHT22;15167;1.318;103.762;2022-09-09T15:08:54;26.80;99.90
27781;DHT22;15167;1.318;103.762;2022-09-09T15:11:23;26.80;99.90
27781;DHT22;15167;1.318;103.762;2022-09-09T15:13:50;26.70;99.90
27781;DHT22;15167;1.318;103.762;2022-09-09T15:16:18;26.70;99.90
27781;DHT22;15167;1.318;103.762;2022-09-09T15:18:45;26.70;99.90
27781;DHT22;15167;1.318;103.762;2022-09-09T15:21:12;26.70;99.90
27781;DHT22;15167;1.318;103.762;2022-09-09T15:23:38;26.70;99.90
27781;DHT22;15167;1.318;103.762;2022-09-09T15:26:05;26.80;99.90
27781;DHT22;15167;1.318;103.762;2022-09-09T15:28:32;26.80;99.90
27781;DHT22;15167;1.318;103.762;2022-09-09T15:31:13;26.70;99.90
27781;DHT22;15167;1.318;103.762;2022-09-09T15:33:55;26.70;99.90
27781;DHT22;15167;1.318;103.762;2022-09-09T15:36:28;26.80;99.90
27781;DHT22;15167;1.318;103.762;2022-09-09T15:38:55;26.70;99.90
27781;DHT22;15167;1.318;103.762;2022-09-09T15:41:21;26.70;99.90
27781;DHT22;15167;1.318;103.762;2022-09-09T15:43:51;26.70;99.90
27781;DHT22;15167;1.318;103.762;2022-09-09T15:46:25;26.70;99.90
27781;DHT22;15167;1.318;103.762;2022-09-09T15:48:58;26.70;99.90
27781;DHT22;15167;1.318;103.762;2022-09-09T15:51:25;26.70;99.90
27781;DHT22;15167;1.318;103.762;2022-09-09T15:53:55;26.70;99.90
27781;DHT22;15167;1.318;103.762;2022-09-09T15:56:22;26.70;99.90
27781;DHT22;15167;1.318;103.762;2022-09-09T15:58:48;26.60;99.90
27781;DHT22;15167;1.318;103.762;2022-09-09T16:01:15;26.60;99.90
27781;DHT22;15167;1.318;103.762;2022-09-09T16:03:43;26.70;99.90
27781;DHT22;15167;1.318;103.762;2022-09-09T16:06:11;26.70;99.90
27781;DHT22;15167;1.318;103.762;2022-09-09T16:08:39;26.70;99.90
27781;DHT22;15167;1.318;103.762;2022-09-09T16:11:06;26.70;99.90
27781;DHT22;15167;1.318;103.762;2022-09-09T16:13:33;26.70;99.90
27781;DHT22;15167;1.318;103.762;2022-09-09T16:16:00;26.70;99.90
27781;DHT22;15167;1.318;103.762;2022-09-09T16:18:26;26.60;99.90
27781;DHT22;15167;1.318;103.762;2022-09-09T16:20:58;26.60;99.90
27781;DHT22;15167;1.318;103.762;2022-09-09T16:23:24;26.60;99.90
27781;DHT22;15167;1.318;103.762;2022-09-09T16:25:54;26.60;99.90
27781;DHT22;15167;1.318;103.762;2022-09-09T16:28:20;26.60;99.90
27781;DHT22;15167;1.318;103.762;2022-09-09T16:30:46;26.60;99.90
27781;DHT22;15167;1.318;103.762;2022-09-09T16:33:12;26.60;99.90
27781;DHT22;15167;1.318;103.762;2022-09-09T16:35:40;26.60;99.90
27781;DHT22;15167;1.318;103.762;2022-09-09T16:38:06;26.60;99.90
27781;DHT22;15167;1.318;103.762;2022-09-09T16:40:36;26.60;99.90
27781;DHT22;15167;1.318;103.762;2022-09-09T16:43:03;26.60;99.90
27781;DHT22;15167;1.318;103.762;2022-09-09T16:45:29;26.60;99.90
27781;DHT22;15167;1.318;103.762;2022-09-09T16:47:55;26.60;99.90
27781;DHT22;15167;1.318;103.762;2022-09-09T16:50:21;26.60;99.90
27781;DHT22;15167;1.318;103.762;2022-09-09T16:52:47;26.60;99.90
27781;DHT22;15167;1.318;103.762;2022-09-09T16:55:13;26.60;99.90
27781;DHT22;15167;1.318;103.762;2022-09-09T16:57:40;26.60;99.90
27781;DHT22;15167;1.318;103.762;2022-09-09T17:00:07;26.70;99.90
27781;DHT22;15167;1.318;103.762;2022-09-09T17:02:34;26.70;99.90
27781;DHT22;15167;1.318;103.762;2022-09-09T17:05:00;26.60;99.90
27781;DHT22;15167;1.318;103.762;2022-09-09T17:07:26;26.60;99.90
27781;DHT22;15167;1.318;103.762;2022-09-09T17:09:53;26.70;99.90
27781;DHT22;15167;1.318;103.762;2022-09-09T17:12:19;26.70;99.90
27781;DHT22;15167;1.318;103.762;2022-09-09T17:14:45;26.70;99.90
27781;DHT22;15167;1.318;103.762;2022-09-09T17:17:12;26.70;99.90
27781;DHT22;15167;1.318;103.762;2022-09-09T17:19:38;26.70;99.90
27781;DHT22;15167;1.318;103.762;2022-09-09T17:22:04;26.70;99.90
27781;DHT22;15167;1.318;103.762;2022-09-09T17:24:30;26.70;99.90
27781;DHT22;15167;1.318;103.762;2022-09-09T17:26:56;26.60;99.90
27781;DHT22;15167;1.318;103.762;2022-09-09T17:29:23;26.60;99.90
27781;DHT22;15167;1.318;103.762;2022-09-09T17:31:50;26.60;99.90
27781;DHT22;15167;1.318;103.762;2022-09-09T17:34:16;26.70;99.90
27781;DHT22;15167;1.318;103.762;2022-09-09T17:36:42;26.60;99.90
27781;DHT22;15167;1.318;103.762;2022-09-09T17:39:08;26.70;99.90
27781;DHT22;15167;1.318;103.762;2022-09-09T17:41:35;26.70;99.90
27781;DHT22;15167;1.318;103.762;2022-09-09T17:44:02;26.70;99.90
27781;DHT22;15167;1.318;103.762;2022-09-09T17:46:36;26.60;99.90
27781;DHT22;15167;1.318;103.762;2022-09-09T17:49:07;26.60;99.90
27781;DHT22;15167;1.318;103.762;2022-09-09T17:51:34;26.60;99.90